sensor_id;sensor_type;location;lat;lon;timestamp;temperature;humidity
7654;DHT22;3869;48.406;10.774;2024-02-28T00:00:45;7.30;99.90
7654;DHT22;3869;48.406;10.774;2024-02-28T00:03:13;7.30;99.90
7654;DHT22;3869;48.406;10.774;2024-02-28T00:05:41;7.30;99.90
7654;DHT22;3869;48.406;10.774;2024-02-28T00:08:09;7.30;99.90
7654;DHT22;3869;48.406;10.774;2024-02-28T00:10:37;7.30;99.90
7654;DHT22;3869;48.406;10.774;2024-02-28T00:13:06;7.30;99.90
7654;DHT22;3869;48.406;10.774;2024-02-28T00:15:34;7.20;99.90
7654;DHT22;3869;48.406;10.774;2024-02-28T00:18:02;7.20;99.90
7654;DHT22;3869;48.406;10.774;2024-02-28T00:20:31;7.30;99.90
7654;DHT22;3869;48.406;10.774;2024-02-28T00:22:59;7.30;99.90
7654;DHT22;3869;48.406;10.774;2024-02-28T00:25:27;7.30;99.90
7654;DHT22;3869;48.406;10.774;2024-02-28T00:27:55;7.30;99.90
7654;DHT22;3869;48.406;10.774;2024-02-28T00:30:25;7.40;99.90
7654;DHT22;3869;48.406;10.774;2024-02-28T00:32:55;7.40;99.90
7654;DHT22;3869;48.406;10.774;2024-02-28T00:35:23;7.40;99.90
7654;DHT22;3869;48.406;10.774;2024-02-28T00:37:51;7.40;99.90
7654;DHT22;3869;48.406;10.774;2024-02-28T00:40:19;7.40;99.90
7654;DHT22;3869;48.406;10.774;2024-02-28T00:42:47;7.40;99.90
7654;DHT22;3869;48.406;10.774;2024-02-28T00:45:15;7.40;99.90
7654;DHT22;3869;48.406;10.774;2024-02-28T00:47:45;7.40;99.90
7654;DHT22;3869;48.406;10.774;2024-02-28T00:50:13;7.40;99.90
7654;DHT22;3869;48.406;10.774;2024-02-28T00:52:41;7.40;99.90
7654;DHT22;3869;48.406;10.774;2024-02-28T00:55:09;7.40;99.90
7654;DHT22;3869;48.406;10.774;2024-02-28T00:57:37;7.40;99.90
7654;DHT22;3869;48.406;10.774;2024-02-28T01:00:06;7.40;99.90
7654;DHT22;3869;48.406;10.774;2024-02-28T01:02:36;7.40;99.90
7654;DHT22;3869;48.406;10.774;2024-02-28T01:05:07;7.50;99.90
7654;DHT22;3869;48.406;10.774;2024-02-28T01:07:35;7.50;99.90
7654;DHT22;3869;48.406;10.774;2024-02-28T01:10:04;7.50;99.90
7654;DHT22;3869;48.406;10.774;2024-02-28T01:12:32;7.50;99.90
7654;DHT22;3869;48.406;10.774;2024-02-28T01:15:00;7.50;99.90
7654;DHT22;3869;48.406;10.774;2024-02-28T01:17:28;7.50;99.90
7654;DHT22;3869;48.406;10.774;2024-02-28T01:19:57;7.50;99.90
7654;DHT22;3869;48.406;10.774;2024-02-28T01:22:26;7.50;99.90
7654;DHT22;3869;48.406;10.774;2024-02-28T01:24:54;7.50;99.90
7654;DHT22;3869;48.406;10.774;2024-02-28T01:27:22;7.50;99.90
7654;DHT22;3869;48.406;10.774;2024-02-28T01:29:50;7.40;99.90
7654;DHT22;3869;48.406;10.774;2024-02-28T01:32:20;7.40;99.90
7654;DHT22;3869;48.406;10.774;2024-02-28T01:34:48;7.40;99.90
7654;DHT22;3869;48.406;10.774;2024-02-28T01:37:16;7.40;99.90
7654;DHT22;3869;48.406;10.774;2024-02-28T01:39:45;7.40;99.90
7654;DHT22;3869;48.406;10.774;2024-02-28T01:42:14;7.40;99.90
7654;DHT22;3869;48.406;10.774;2024-02-28T01:44:45;7.40;99.90
7654;DHT22;3869;48.406;10.774;2024-02-28T01:47:15;7.40;99.90
7654;DHT22;3869;48.406;10.774;2024-02-28T01:49:44;7.40;99.90
7654;DHT22;3869;48.406;10.774;2024-02-28T01:52:14;7.40;99.90
7654;DHT22;3869;48.406;10.774;2024-02-28T01:54:42;7.40;99.90
7654;DHT22;3869;48.406;10.774;2024-02-28T01:57:12;7.30;99.90
7654;DHT22;3869;48.406;10.774;2024-02-28T01:59:41;7.30;99.90
7654;DHT22;3869;48.406;10.774;2024-02-28T02:02:10;7.20;99.90
7654;DHT22;3869;48.406;10.774;2024-02-28T02:04:38;7.30;99.90
7654;DHT22;3869;48.406;10.774;2024-02-28T02:07:06;7.30;99.90
7654;DHT22;3869;48.406;10.774;2024-02-28T02:09:35;7.30;99.90
7654;DHT22;3869;48.406;10.774;2024-02-28T02:12:03;7.30;99.90
7654;DHT22;3869;48.406;10.774;2024-02-28T02:14:32;7.20;99.90
7654;DHT22;3869;48.406;10.774;2024-02-28T02:17:00;7.20;99.90
7654;DHT22;3869;48.406;10.774;2024-02-28T02:19:28;7.20;99.90
7654;DHT22;3869;48.406;10.774;2024-02-28T02:21:58;7.20;99.90
7654;DHT22;3869;48.406;10.774;2024-02-28T02:24:28;7.20;99.90
7654;DHT22;3869;48.406;10.774;2024-02-28T02:26:58;7.30;99.90
7654;DHT22;3869;48.406;10.774;2024-02-28T02:29:26;7.20;99.90
7654;DHT22;3869;48.406;10.774;2024-02-28T02:31:55;7.10;99.90
7654;DHT22;3869;48.406;10.774;2024-02-28T02:34:23;7.10;99.90
7654;DHT22;3869;48.406;10.774;2024-02-28T02:36:51;7.10;99.90
7654;DHT22;3869;48.406;10.774;2024-02-28T02:39:19;7.10;99.90
7654;DHT22;3869;48.406;10.774;2024-02-28T02:41:49;7.20;99.90
7654;DHT22;3869;48.406;10.774;2024-02-28T02:44:17;7.20;99.90
7654;DHT22;3869;48.406;10.774;2024-02-28T02:46:45;7.20;99.90
7654;DHT22;3869;48.406;10.774;2024-02-28T02:49:13;7.10;99.90
7654;DHT22;3869;48.406;10.774;2024-02-28T02:51:41;7.10;99.90
7654;DHT22;3869;48.406;10.774;2024-02-28T02:54:10;7.10;99.90
7654;DHT22;3869;48.406;10.774;2024-02-28T02:56:41;7.20;99.90
7654;DHT22;3869;48.406;10.774;2024-02-28T02:59:11;7.20;99.90
7654;DHT22;3869;48.406;10.774;2024-02-28T03:01:40;7.10;99.90
7654;DHT22;3869;48.406;10.774;2024-02-28T03:04:08;7.20;99.90
7654;DHT22;3869;48.406;10.774;2024-02-28T03:06:36;7.20;99.90
7654;DHT22;3869;48.406;10.774;2024-02-28T03:09:04;7.10;99.90
7654;DHT22;3869;48.406;10.774;2024-02-28T03:11:34;7.00;99.90
7654;DHT22;3869;48.406;10.774;2024-02-28T03:14:02;7.00;99.90
7654;DHT22;3869;48.406;10.774;2024-02-28T03:16:32;7.00;99.90
7654;DHT22;3869;48.406;10.774;2024-02-28T03:19:04;7.00;99.90
7654;DHT22;3869;48.406;10.774;2024-02-28T03:21:32;7.00;99.90
7654;DHT22;3869;48.406;10.774;2024-02-28T03:24:01;6.90;99.90
7654;DHT22;3869;48.406;10.774;2024-02-28T03:26:29;6.90;99.90
7654;DHT22;3869;48.406;10.774;2024-02-28T03:28:57;6.90;99.90
7654;DHT22;3869;48.406;10.774;2024-02-28T03:31:25;6.90;99.90
7654;DHT22;3869;48.406;10.774;2024-02-28T03:33:54;6.80;99.90
7654;DHT22;3869;48.406;10.774;2024-02-28T03:36:22;6.80;99.90
7654;DHT22;3869;48.406;10.774;2024-02-28T03:38:50;6.80;99.90
7654;DHT22;3869;48.406;10.774;2024-02-28T03:41:18;6.80;99.90
7654;DHT22;3869;48.406;10.774;2024-02-28T03:43:46;6.70;99.90
7654;DHT22;3869;48.406;10.774;2024-02-28T03:46:14;6.70;99.90
7654;DHT22;3869;48.406;10.774;2024-02-28T03:48:42;6.70;99.90
7654;DHT22;3869;48.406;10.774;2024-02-28T03:51:12;6.70;99.90
7654;DHT22;3869;48.406;10.774;2024-02-28T03:53:40;6.70;99.90
7654;DHT22;3869;48.406;10.774;2024-02-28T03:56:09;6.70;99.90
7654;DHT22;3869;48.406;10.774;2024-02-28T03:58:39;6.70;99.90
7654;DHT22;3869;48.406;10.774;2024-02-28T04:01:07;6.80;99.90
7654;DHT22;3869;48.406;10.774;2024-02-28T04:03:35;6.80;99.90
7654;DHT22;3869;48.406;10.774;2024-02-28T04:06:03;6.80;99.90
7654;DHT22;3869;48.406;10.774;2024-02-28T04:08:33;6.90;99.90
7654;DHT22;3869;48.406;10.774;2024-02-28T04:11:01;6.90;99.90
7654;DHT22;3869;48.406;10.774;2024-02-28T04:13:29;6.90;99.90
7654;DHT22;3869;48.406;10.774;2024-02-28T04:15:57;7.00;99.90
7654;DHT22;3869;48.406;10.774;2024-02-28T04:18:25;7.00;99.90
7654;DHT22;3869;48.406;10.774;2024-02-28T04:20:53;7.00;99.90
7654;DHT22;3869;48.406;10.774;2024-02-28T04:23:21;7.00;99.90
7654;DHT22;3869;48.406;10.774;2024-02-28T04:25:51;7.00;99.90
7654;DHT22;3869;48.406;10.774;2024-02-28T04:28:19;7.00;99.90
7654;DHT22;3869;48.406;10.774;2024-02-28T04:30:47;7.00;99.90
7654;DHT22;3869;48.406;10.774;2024-02-28T04:33:16;6.90;99.90
7654;DHT22;3869;48.406;10.774;2024-02-28T04:35:44;6.90;99.90
7654;DHT22;3869;48.406;10.774;2024-02-28T04:38:13;6.90;99.90
7654;DHT22;3869;48.406;10.774;2024-02-28T04:40:41;6.90;99.90
7654;DHT22;3869;48.406;10.774;2024-02-28T04:43:10;6.80;99.90
7654;DHT22;3869;48.406;10.774;2024-02-28T04:45:38;6.70;99.90
7654;DHT22;3869;48.406;10.774;2024-02-28T04:48:06;6.60;99.90
7654;DHT22;3869;48.406;10.774;2024-02-28T04:50:35;6.50;99.90
7654;DHT22;3869;48.406;10.774;2024-02-28T04:53:03;6.50;99.90
7654;DHT22;3869;48.406;10.774;2024-02-28T04:55:31;6.60;99.90
7654;DHT22;3869;48.406;10.774;2024-02-28T04:57:59;6.50;99.90
7654;DHT22;3869;48.406;10.774;2024-02-28T05:00:29;6.50;99.90
7654;DHT22;3869;48.406;10.774;2024-02-28T05:02:57;6.50;99.90
7654;DHT22;3869;48.406;10.774;2024-02-28T05:05:25;6.50;99.90
7654;DHT22;3869;48.406;10.774;2024-02-28T05:07:53;6.50;99.90
7654;DHT22;3869;48.406;10.774;2024-02-28T05:10:21;6.40;99.90
7654;DHT22;3869;48.406;10.774;2024-02-28T05:12:49;6.40;99.90
7654;DHT22;3869;48.406;10.774;2024-02-28T05:15:17;6.40;99.90
7654;DHT22;3869;48.406;10.774;2024-02-28T05:17:50;6.30;99.90
7654;DHT22;3869;48.406;10.774;2024-02-28T05:20:18;6.30;99.90
7654;DHT22;3869;48.406;10.774;2024-02-28T05:22:45;6.30;99.90
7654;DHT22;3869;48.406;10.774;2024-02-28T05:25:13;6.30;99.90
7654;DHT22;3869;48.406;10.774;2024-02-28T05:27:41;6.20;99.90
7654;DHT22;3869;48.406;10.774;2024-02-28T05:30:10;6.10;99.90
7654;DHT22;3869;48.406;10.774;2024-02-28T05:32:38;6.10;99.90
7654;DHT22;3869;48.406;10.774;2024-02-28T05:35:08;6.00;99.90
7654;DHT22;3869;48.406;10.774;2024-02-28T05:37:38;6.00;99.90
7654;DHT22;3869;48.406;10.774;2024-02-28T05:40:07;6.00;99.90
7654;DHT22;3869;48.406;10.774;2024-02-28T05:42:36;6.10;99.90
7654;DHT22;3869;48.406;10.774;2024-02-28T05:45:04;6.10;99.90
7654;DHT22;3869;48.406;10.774;2024-02-28T05:47:32;6.00;99.90
7654;DHT22;3869;48.406;10.774;2024-02-28T05:50:01;5.90;99.90
7654;DHT22;3869;48.406;10.774;2024-02-28T05:52:30;6.00;99.90
7654;DHT22;3869;48.406;10.774;2024-02-28T05:54:58;6.00;99.90
7654;DHT22;3869;48.406;10.774;2024-02-28T05:57:26;6.00;99.90
7654;DHT22;3869;48.406;10.774;2024-02-28T05:59:54;6.10;99.90
7654;DHT22;3869;48.406;10.774;2024-02-28T06:02:22;6.10;99.90
7654;DHT22;3869;48.406;10.774;2024-02-28T06:04:50;6.10;99.90
7654;DHT22;3869;48.406;10.774;2024-02-28T06:07:19;6.10;99.90
7654;DHT22;3869;48.406;10.774;2024-02-28T06:09:48;6.10;99.90
7654;DHT22;3869;48.406;10.774;2024-02-28T06:12:17;6.10;99.90
7654;DHT22;3869;48.406;10.774;2024-02-28T06:14:45;6.20;99.90
7654;DHT22;3869;48.406;10.774;2024-02-28T06:17:13;6.20;99.90
7654;DHT22;3869;48.406;10.774;2024-02-28T06:19:41;6.20;99.90
7654;DHT22;3869;48.406;10.774;2024-02-28T06:22:09;6.20;99.90
7654;DHT22;3869;48.406;10.774;2024-02-28T06:24:37;6.20;99.90
7654;DHT22;3869;48.406;10.774;2024-02-28T06:27:06;6.10;99.90
7654;DHT22;3869;48.406;10.774;2024-02-28T06:29:39;6.10;99.90
7654;DHT22;3869;48.406;10.774;2024-02-28T06:32:07;6.10;99.90
7654;DHT22;3869;48.406;10.774;2024-02-28T06:34:35;6.10;99.90
7654;DHT22;3869;48.406;10.774;2024-02-28T06:37:03;6.00;99.90
7654;DHT22;3869;48.406;10.774;2024-02-28T06:39:31;6.00;99.90
7654;DHT22;3869;48.406;10.774;2024-02-28T06:41:59;5.90;99.90
7654;DHT22;3869;48.406;10.774;2024-02-28T06:44:29;5.90;99.90
7654;DHT22;3869;48.406;10.774;2024-02-28T06:46:57;5.90;99.90
7654;DHT22;3869;48.406;10.774;2024-02-28T06:49:25;5.90;99.90
7654;DHT22;3869;48.406;10.774;2024-02-28T06:51:53;5.80;99.90
7654;DHT22;3869;48.406;10.774;2024-02-28T06:54:21;5.80;99.90
7654;DHT22;3869;48.406;10.774;2024-02-28T06:56:49;5.80;99.90
7654;DHT22;3869;48.406;10.774;2024-02-28T06:59:17;5.80;99.90
7654;DHT22;3869;48.406;10.774;2024-02-28T07:01:46;5.80;99.90
7654;DHT22;3869;48.406;10.774;2024-02-28T07:04:14;5.80;99.90
7654;DHT22;3869;48.406;10.774;2024-02-28T07:06:43;5.80;99.90
7654;DHT22;3869;48.406;10.774;2024-02-28T07:09:11;5.90;99.90
7654;DHT22;3869;48.406;10.774;2024-02-28T07:11:42;5.90;99.90
7654;DHT22;3869;48.406;10.774;2024-02-28T07:14:10;5.90;99.90
7654;DHT22;3869;48.406;10.774;2024-02-28T07:16:41;6.00;99.90
7654;DHT22;3869;48.406;10.774;2024-02-28T07:19:11;6.00;99.90
7654;DHT22;3869;48.406;10.774;2024-02-28T07:21:40;6.10;99.90
7654;DHT22;3869;48.406;10.774;2024-02-28T07:24:08;6.20;99.90
7654;DHT22;3869;48.406;10.774;2024-02-28T07:26:36;6.20;99.90
7654;DHT22;3869;48.406;10.774;2024-02-28T07:29:05;6.30;99.90
7654;DHT22;3869;48.406;10.774;2024-02-28T07:31:33;6.30;99.90
7654;DHT22;3869;48.406;10.774;2024-02-28T07:34:01;6.30;99.90
7654;DHT22;3869;48.406;10.774;2024-02-28T07:36:31;6.20;99.90
7654;DHT22;3869;48.406;10.774;2024-02-28T07:38:59;6.10;99.90
7654;DHT22;3869;48.406;10.774;2024-02-28T07:41:28;6.10;99.90
7654;DHT22;3869;48.406;10.774;2024-02-28T07:43:56;6.10;99.90
7654;DHT22;3869;48.406;10.774;2024-02-28T07:46:24;6.10;99.90
7654;DHT22;3869;48.406;10.774;2024-02-28T07:48:52;6.10;99.90
7654;DHT22;3869;48.406;10.774;2024-02-28T07:51:20;6.10;99.90
7654;DHT22;3869;48.406;10.774;2024-02-28T07:53:50;6.10;99.90
7654;DHT22;3869;48.406;10.774;2024-02-28T07:56:18;6.10;99.90
7654;DHT22;3869;48.406;10.774;2024-02-28T07:58:46;6.10;99.90
7654;DHT22;3869;48.406;10.774;2024-02-28T08:01:14;6.10;99.90
7654;DHT22;3869;48.406;10.774;2024-02-28T08:03:43;6.00;99.90
7654;DHT22;3869;48.406;10.774;2024-02-28T08:06:12;6.00;99.90
7654;DHT22;3869;48.406;10.774;2024-02-28T08:08:44;6.10;99.90
7654;DHT22;3869;48.406;10.774;2024-02-28T08:11:14;6.20;99.90
7654;DHT22;3869;48.406;10.774;2024-02-28T08:13:42;6.20;99.90
7654;DHT22;3869;48.406;10.774;2024-02-28T08:16:11;6.40;99.90
7654;DHT22;3869;48.406;10.774;2024-02-28T08:18:39;6.50;99.90
7654;DHT22;3869;48.406;10.774;2024-02-28T08:21:08;6.50;99.90
7654;DHT22;3869;48.406;10.774;2024-02-28T08:23:37;6.50;99.90
7654;DHT22;3869;48.406;10.774;2024-02-28T08:26:05;6.60;99.90
7654;DHT22;3869;48.406;10.774;2024-02-28T08:28:34;6.60;99.90
7654;DHT22;3869;48.406;10.774;2024-02-28T08:31:03;6.60;99.90
7654;DHT22;3869;48.406;10.774;2024-02-28T08:33:31;6.60;99.90
7654;DHT22;3869;48.406;10.774;2024-02-28T08:35:59;6.60;99.90
7654;DHT22;3869;48.406;10.774;2024-02-28T08:38:27;6.60;99.90
7654;DHT22;3869;48.406;10.774;2024-02-28T08:40:55;6.60;99.90
7654;DHT22;3869;48.406;10.774;2024-02-28T08:43:23;6.60;99.90
7654;DHT22;3869;48.406;10.774;2024-02-28T08:45:53;6.60;99.90
7654;DHT22;3869;48.406;10.774;2024-02-28T08:48:22;6.50;99.90
7654;DHT22;3869;48.406;10.774;2024-02-28T08:50:50;6.50;99.90
7654;DHT22;3869;48.406;10.774;2024-02-28T08:53:18;6.50;99.90
7654;DHT22;3869;48.406;10.774;2024-02-28T08:55:46;6.50;99.90
7654;DHT22;3869;48.406;10.774;2024-02-28T08:58:14;6.50;99.90
7654;DHT22;3869;48.406;10.774;2024-02-28T09:00:42;6.50;99.90
7654;DHT22;3869;48.406;10.774;2024-02-28T09:03:12;6.40;99.90
7654;DHT22;3869;48.406;10.774;2024-02-28T09:05:40;6.50;99.90
7654;DHT22;3869;48.406;10.774;2024-02-28T09:08:08;6.50;99.90
7654;DHT22;3869;48.406;10.774;2024-02-28T09:10:40;6.40;99.90
7654;DHT22;3869;48.406;10.774;2024-02-28T09:13:08;6.40;99.90
7654;DHT22;3869;48.406;10.774;2024-02-28T09:15:37;6.40;99.90
7654;DHT22;3869;48.406;10.774;2024-02-28T09:18:05;6.40;99.90
7654;DHT22;3869;48.406;10.774;2024-02-28T09:20:35;6.50;99.90
7654;DHT22;3869;48.406;10.774;2024-02-28T09:23:03;6.50;99.90
7654;DHT22;3869;48.406;10.774;2024-02-28T09:25:33;6.50;99.90
7654;DHT22;3869;48.406;10.774;2024-02-28T09:28:02;6.50;99.90
7654;DHT22;3869;48.406;10.774;2024-02-28T09:30:31;6.50;99.90
7654;DHT22;3869;48.406;10.774;2024-02-28T09:33:11;6.50;99.90
7654;DHT22;3869;48.406;10.774;2024-02-28T09:35:41;6.50;99.90
7654;DHT22;3869;48.406;10.774;2024-02-28T09:38:10;6.50;99.90
7654;DHT22;3869;48.406;10.774;2024-02-28T09:40:38;6.50;99.90
7654;DHT22;3869;48.406;10.774;2024-02-28T09:43:24;6.50;99.90
7654;DHT22;3869;48.406;10.774;2024-02-28T09:45:59;6.60;99.90
7654;DHT22;3869;48.406;10.774;2024-02-28T09:48:27;6.60;99.90
7654;DHT22;3869;48.406;10.774;2024-02-28T09:50:58;6.60;99.90
7654;DHT22;3869;48.406;10.774;2024-02-28T09:53:27;6.50;99.90
7654;DHT22;3869;48.406;10.774;2024-02-28T09:55:55;6.50;99.90
7654;DHT22;3869;48.406;10.774;2024-02-28T09:58:23;6.50;99.90
7654;DHT22;3869;48.406;10.774;2024-02-28T10:00:52;6.50;99.90
7654;DHT22;3869;48.406;10.774;2024-02-28T10:03:27;6.60;99.90
7654;DHT22;3869;48.406;10.774;2024-02-28T10:05:57;6.70;99.90
7654;DHT22;3869;48.406;10.774;2024-02-28T10:08:30;6.60;99.90
7654;DHT22;3869;48.406;10.774;2024-02-28T10:10:58;6.70;99.90
7654;DHT22;3869;48.406;10.774;2024-02-28T10:13:26;6.70;99.90
7654;DHT22;3869;48.406;10.774;2024-02-28T10:15:54;6.80;99.90
7654;DHT22;3869;48.406;10.774;2024-02-28T10:18:22;6.80;99.90
7654;DHT22;3869;48.406;10.774;2024-02-28T10:20:52;6.90;99.90
7654;DHT22;3869;48.406;10.774;2024-02-28T10:23:21;7.00;99.90
7654;DHT22;3869;48.406;10.774;2024-02-28T10:25:49;7.10;99.90
7654;DHT22;3869;48.406;10.774;2024-02-28T10:28:23;7.20;99.90
7654;DHT22;3869;48.406;10.774;2024-02-28T10:30:52;7.30;99.90
7654;DHT22;3869;48.406;10.774;2024-02-28T10:33:21;7.40;99.90
7654;DHT22;3869;48.406;10.774;2024-02-28T10:35:50;7.40;99.90
7654;DHT22;3869;48.406;10.774;2024-02-28T10:38:21;7.30;99.90
7654;DHT22;3869;48.406;10.774;2024-02-28T10:40:49;7.40;99.90
7654;DHT22;3869;48.406;10.774;2024-02-28T10:43:19;7.40;99.90
7654;DHT22;3869;48.406;10.774;2024-02-28T10:45:48;7.40;99.90
7654;DHT22;3869;48.406;10.774;2024-02-28T10:48:37;7.30;99.90
7654;DHT22;3869;48.406;10.774;2024-02-28T10:51:05;7.30;99.90
7654;DHT22;3869;48.406;10.774;2024-02-28T10:53:37;7.20;99.90
7654;DHT22;3869;48.406;10.774;2024-02-28T10:56:06;7.20;99.90
7654;DHT22;3869;48.406;10.774;2024-02-28T10:58:50;7.10;99.90
7654;DHT22;3869;48.406;10.774;2024-02-28T11:01:18;7.20;99.90
7654;DHT22;3869;48.406;10.774;2024-02-28T11:03:48;7.10;99.90
7654;DHT22;3869;48.406;10.774;2024-02-28T11:06:19;7.00;99.90
7654;DHT22;3869;48.406;10.774;2024-02-28T11:08:51;6.90;99.90
7654;DHT22;3869;48.406;10.774;2024-02-28T11:11:21;6.90;99.90
7654;DHT22;3869;48.406;10.774;2024-02-28T11:13:53;6.80;99.90
7654;DHT22;3869;48.406;10.774;2024-02-28T11:16:29;6.70;99.90
7654;DHT22;3869;48.406;10.774;2024-02-28T11:18:57;6.70;99.90
7654;DHT22;3869;48.406;10.774;2024-02-28T11:21:26;6.60;99.90
7654;DHT22;3869;48.406;10.774;2024-02-28T11:23:59;6.60;99.90
7654;DHT22;3869;48.406;10.774;2024-02-28T11:26:27;6.60;99.90
7654;DHT22;3869;48.406;10.774;2024-02-28T11:28:55;6.60;99.90
7654;DHT22;3869;48.406;10.774;2024-02-28T11:31:23;6.60;99.90
7654;DHT22;3869;48.406;10.774;2024-02-28T11:33:51;6.60;99.90
7654;DHT22;3869;48.406;10.774;2024-02-28T11:36:20;6.60;99.90
7654;DHT22;3869;48.406;10.774;2024-02-28T11:38:49;6.60;99.90
7654;DHT22;3869;48.406;10.774;2024-02-28T11:41:26;6.60;99.90
7654;DHT22;3869;48.406;10.774;2024-02-28T11:43:55;6.60;99.90
7654;DHT22;3869;48.406;10.774;2024-02-28T11:46:23;6.50;99.90
7654;DHT22;3869;48.406;10.774;2024-02-28T11:48:52;6.50;99.90
7654;DHT22;3869;48.406;10.774;2024-02-28T11:51:22;6.50;99.90
7654;DHT22;3869;48.406;10.774;2024-02-28T11:53:50;6.50;99.90
7654;DHT22;3869;48.406;10.774;2024-02-28T11:56:19;6.60;99.90
7654;DHT22;3869;48.406;10.774;2024-02-28T11:58:53;6.60;99.90
7654;DHT22;3869;48.406;10.774;2024-02-28T12:01:33;6.60;99.90
7654;DHT22;3869;48.406;10.774;2024-02-28T12:04:02;6.60;99.90
7654;DHT22;3869;48.406;10.774;2024-02-28T12:06:32;6.60;99.90
7654;DHT22;3869;48.406;10.774;2024-02-28T12:09:01;6.70;99.90
7654;DHT22;3869;48.406;10.774;2024-02-28T12:11:30;6.80;99.90
7654;DHT22;3869;48.406;10.774;2024-02-28T12:14:02;6.90;99.90
7654;DHT22;3869;48.406;10.774;2024-02-28T12:16:31;6.90;99.90
7654;DHT22;3869;48.406;10.774;2024-02-28T12:18:59;6.80;99.90
7654;DHT22;3869;48.406;10.774;2024-02-28T12:21:28;6.70;99.90
7654;DHT22;3869;48.406;10.774;2024-02-28T12:23:56;6.70;99.90
7654;DHT22;3869;48.406;10.774;2024-02-28T12:26:27;6.60;99.90
7654;DHT22;3869;48.406;10.774;2024-02-28T12:28:55;6.60;99.90
7654;DHT22;3869;48.406;10.774;2024-02-28T12:31:24;6.60;99.90
7654;DHT22;3869;48.406;10.774;2024-02-28T12:33:53;6.60;99.90
7654;DHT22;3869;48.406;10.774;2024-02-28T12:36:21;6.70;99.90
7654;DHT22;3869;48.406;10.774;2024-02-28T12:38:49;6.80;99.90
7654;DHT22;3869;48.406;10.774;2024-02-28T12:41:17;6.90;99.90
7654;DHT22;3869;48.406;10.774;2024-02-28T12:43:45;6.90;99.90
7654;DHT22;3869;48.406;10.774;2024-02-28T12:46:13;7.00;99.90
7654;DHT22;3869;48.406;10.774;2024-02-28T12:48:42;7.00;99.90
7654;DHT22;3869;48.406;10.774;2024-02-28T12:51:20;7.00;99.90
7654;DHT22;3869;48.406;10.774;2024-02-28T12:54:02;7.00;99.90
7654;DHT22;3869;48.406;10.774;2024-02-28T12:56:30;7.10;99.90
7654;DHT22;3869;48.406;10.774;2024-02-28T12:58:58;7.20;99.90
7654;DHT22;3869;48.406;10.774;2024-02-28T13:01:27;7.20;99.90
7654;DHT22;3869;48.406;10.774;2024-02-28T13:03:57;7.30;99.90
7654;DHT22;3869;48.406;10.774;2024-02-28T13:06:25;7.40;99.90
7654;DHT22;3869;48.406;10.774;2024-02-28T13:08:54;7.30;99.90
7654;DHT22;3869;48.406;10.774;2024-02-28T13:11:22;7.20;99.90
7654;DHT22;3869;48.406;10.774;2024-02-28T13:13:52;7.10;99.90
7654;DHT22;3869;48.406;10.774;2024-02-28T13:16:20;7.20;99.90
7654;DHT22;3869;48.406;10.774;2024-02-28T13:18:49;7.20;99.90
7654;DHT22;3869;48.406;10.774;2024-02-28T13:21:18;7.40;99.90
7654;DHT22;3869;48.406;10.774;2024-02-28T13:23:47;7.50;99.90
7654;DHT22;3869;48.406;10.774;2024-02-28T13:26:15;7.50;99.90
7654;DHT22;3869;48.406;10.774;2024-02-28T13:28:45;7.60;99.90
7654;DHT22;3869;48.406;10.774;2024-02-28T13:31:18;7.60;99.90
7654;DHT22;3869;48.406;10.774;2024-02-28T13:33:46;7.60;99.90
7654;DHT22;3869;48.406;10.774;2024-02-28T13:36:15;7.70;99.90
7654;DHT22;3869;48.406;10.774;2024-02-28T13:38:45;7.60;99.90
7654;DHT22;3869;48.406;10.774;2024-02-28T13:41:13;7.60;99.90
7654;DHT22;3869;48.406;10.774;2024-02-28T13:43:43;7.50;99.90
7654;DHT22;3869;48.406;10.774;2024-02-28T13:46:11;7.40;99.90
7654;DHT22;3869;48.406;10.774;2024-02-28T13:48:41;7.50;99.90
7654;DHT22;3869;48.406;10.774;2024-02-28T13:51:10;7.50;99.90
7654;DHT22;3869;48.406;10.774;2024-02-28T13:53:38;7.60;99.90
7654;DHT22;3869;48.406;10.774;2024-02-28T13:56:08;7.60;99.90
7654;DHT22;3869;48.406;10.774;2024-02-28T13:58:36;7.50;99.90
7654;DHT22;3869;48.406;10.774;2024-02-28T14:01:14;7.40;99.90
7654;DHT22;3869;48.406;10.774;2024-02-28T14:03:44;7.30;99.90
7654;DHT22;3869;48.406;10.774;2024-02-28T14:06:12;7.30;99.90
7654;DHT22;3869;48.406;10.774;2024-02-28T14:08:40;7.30;99.90
7654;DHT22;3869;48.406;10.774;2024-02-28T14:11:11;7.30;99.90
7654;DHT22;3869;48.406;10.774;2024-02-28T14:13:39;7.30;99.90
7654;DHT22;3869;48.406;10.774;2024-02-28T14:16:08;7.30;99.90
7654;DHT22;3869;48.406;10.774;2024-02-28T14:18:36;7.30;99.90
7654;DHT22;3869;48.406;10.774;2024-02-28T14:21:05;7.30;99.90
7654;DHT22;3869;48.406;10.774;2024-02-28T14:23:34;7.30;99.90
7654;DHT22;3869;48.406;10.774;2024-02-28T14:26:02;7.20;99.90
7654;DHT22;3869;48.406;10.774;2024-02-28T14:28:32;7.20;99.90
7654;DHT22;3869;48.406;10.774;2024-02-28T14:31:00;7.20;99.90
7654;DHT22;3869;48.406;10.774;2024-02-28T14:33:28;7.20;99.90
7654;DHT22;3869;48.406;10.774;2024-02-28T14:35:58;7.10;99.90
7654;DHT22;3869;48.406;10.774;2024-02-28T14:38:26;7.10;99.90
7654;DHT22;3869;48.406;10.774;2024-02-28T14:40:54;7.10;99.90
7654;DHT22;3869;48.406;10.774;2024-02-28T14:43:22;7.10;99.90
7654;DHT22;3869;48.406;10.774;2024-02-28T14:45:52;7.00;99.90
7654;DHT22;3869;48.406;10.774;2024-02-28T14:48:20;7.10;99.90
7654;DHT22;3869;48.406;10.774;2024-02-28T14:50:49;7.10;99.90
7654;DHT22;3869;48.406;10.774;2024-02-28T14:53:17;7.10;99.90
7654;DHT22;3869;48.406;10.774;2024-02-28T14:55:47;7.10;99.90
7654;DHT22;3869;48.406;10.774;2024-02-28T14:58:15;7.10;99.90
7654;DHT22;3869;48.406;10.774;2024-02-28T15:00:45;7.20;99.90
7654;DHT22;3869;48.406;10.774;2024-02-28T15:03:15;7.20;99.90
7654;DHT22;3869;48.406;10.774;2024-02-28T15:05:43;7.20;99.90
7654;DHT22;3869;48.406;10.774;2024-02-28T15:08:12;7.30;99.90
7654;DHT22;3869;48.406;10.774;2024-02-28T15:10:40;7.30;99.90
7654;DHT22;3869;48.406;10.774;2024-02-28T15:13:08;7.30;99.90
7654;DHT22;3869;48.406;10.774;2024-02-28T15:15:36;7.40;99.90
7654;DHT22;3869;48.406;10.774;2024-02-28T15:18:08;7.50;99.90
7654;DHT22;3869;48.406;10.774;2024-02-28T15:20:38;7.50;99.90
7654;DHT22;3869;48.406;10.774;2024-02-28T15:23:06;7.50;99.90
7654;DHT22;3869;48.406;10.774;2024-02-28T15:25:35;7.60;99.90
7654;DHT22;3869;48.406;10.774;2024-02-28T15:28:04;7.60;99.90
7654;DHT22;3869;48.406;10.774;2024-02-28T15:30:33;7.60;99.90
7654;DHT22;3869;48.406;10.774;2024-02-28T15:33:01;7.60;99.90
7654;DHT22;3869;48.406;10.774;2024-02-28T15:35:30;7.60;99.90
7654;DHT22;3869;48.406;10.774;2024-02-28T15:38:00;7.70;99.90
7654;DHT22;3869;48.406;10.774;2024-02-28T15:40:28;7.60;99.90
7654;DHT22;3869;48.406;10.774;2024-02-28T15:42:56;7.60;99.90
7654;DHT22;3869;48.406;10.774;2024-02-28T15:45:25;7.60;99.90
7654;DHT22;3869;48.406;10.774;2024-02-28T15:47:53;7.60;99.90
7654;DHT22;3869;48.406;10.774;2024-02-28T15:50:21;7.60;99.90
7654;DHT22;3869;48.406;10.774;2024-02-28T15:52:49;7.60;99.90
7654;DHT22;3869;48.406;10.774;2024-02-28T15:55:18;7.60;99.90
7654;DHT22;3869;48.406;10.774;2024-02-28T15:57:48;7.60;99.90
7654;DHT22;3869;48.406;10.774;2024-02-28T16:00:17;7.60;99.90
7654;DHT22;3869;48.406;10.774;2024-02-28T16:02:45;7.60;99.90
7654;DHT22;3869;48.406;10.774;2024-02-28T16:05:13;7.50;99.90
7654;DHT22;3869;48.406;10.774;2024-02-28T16:07:41;7.50;99.90
7654;DHT22;3869;48.406;10.774;2024-02-28T16:10:09;7.50;99.90
7654;DHT22;3869;48.406;10.774;2024-02-28T16:12:41;7.50;99.90